createdAt,value
2023-05-01T00:00:54.936Z,0.93
2023-05-01T00:03:22.101Z,6.23
2023-05-01T00:05:49.439Z,2.10
2023-05-01T00:08:16.493Z,2.30
2023-05-01T00:10:43.622Z,3.60
2023-05-01T00:13:10.801Z,2.20
2023-05-01T00:15:42.193Z,1.53
2023-05-01T00:18:09.372Z,1.13
2023-05-01T00:20:36.492Z,1.17
2023-05-01T00:23:03.578Z,5.67
2023-05-01T00:25:31.512Z,3.50
2023-05-01T00:27:59.875Z,7.60
2023-05-01T00:30:27.842Z,1.87
2023-05-01T00:32:55.210Z,1.30
2023-05-01T00:35:22.719Z,3.90
2023-05-01T00:37:49.785Z,3.77
2023-05-01T00:40:17.282Z,1.43
2023-05-01T00:42:44.305Z,1.80
2023-05-01T00:45:11.634Z,4.90
2023-05-01T00:47:39.268Z,3.13
2023-05-01T00:50:08.197Z,1.07
2023-05-01T00:52:36.286Z,2.07
2023-05-01T00:55:05.476Z,1.60
2023-05-01T00:57:33.316Z,0.80
2023-05-01T01:00:00.461Z,1.27
2023-05-01T01:02:28.013Z,1.37
2023-05-01T01:04:55.329Z,1.40
2023-05-01T01:07:37.152Z,1.47
2023-05-01T01:10:22.086Z,2.30
2023-05-01T01:13:20.350Z,1.60
2023-05-01T01:16:23.504Z,2.23
2023-05-01T01:19:06.935Z,4.07
2023-05-01T01:21:42.975Z,2.00
2023-05-01T01:25:07.342Z,8.43
2023-05-01T01:28:07.490Z,2.53
2023-05-01T01:31:14.768Z,5.27
2023-05-01T01:34:11.015Z,1.40
2023-05-01T01:37:03.906Z,0.60
2023-05-01T01:39:56.972Z,2.67
2023-05-01T01:42:41.979Z,0.77
2023-05-01T01:45:43.244Z,3.43
2023-05-01T01:48:23.600Z,2.53
2023-05-01T01:50:54.900Z,1.37
2023-05-01T01:53:25.946Z,2.37
2023-05-01T01:55:55.291Z,2.37
2023-05-01T01:58:26.276Z,1.40
2023-05-01T02:00:56.848Z,1.40
2023-05-01T02:03:26.241Z,1.23
2023-05-01T02:05:56.724Z,1.00
2023-05-01T02:08:29.322Z,2.73
2023-05-01T02:11:01.800Z,0.47
2023-05-01T02:13:31.630Z,2.07
2023-05-01T02:16:00.925Z,2.27
2023-05-01T02:18:30.169Z,1.57
2023-05-01T02:21:02.279Z,1.47
2023-05-01T02:23:31.940Z,2.17
2023-05-01T02:26:03.255Z,4.27
2023-05-01T02:28:30.964Z,0.93
2023-05-01T02:30:59.003Z,1.03
2023-05-01T02:33:26.239Z,2.40
2023-05-01T02:35:53.389Z,0.97
2023-05-01T02:38:20.750Z,1.70
2023-05-01T02:40:54.186Z,1.70
2023-05-01T02:43:23.523Z,4.17
2023-05-01T02:45:55.920Z,2.93
2023-05-01T02:48:27.669Z,1.23
2023-05-01T02:50:57.294Z,1.73
2023-05-01T02:53:24.413Z,3.63
2023-05-01T02:55:51.716Z,2.70
2023-05-01T02:58:19.883Z,4.97
2023-05-01T03:00:50.207Z,1.10
2023-05-01T03:03:18.016Z,2.33
2023-05-01T03:05:45.260Z,1.27
2023-05-01T03:08:12.918Z,1.03
2023-05-01T03:10:42.712Z,2.13
2023-05-01T03:13:11.340Z,1.20
2023-05-01T03:15:39.423Z,2.00
2023-05-01T03:18:07.789Z,1.90
2023-05-01T03:20:34.943Z,1.27
2023-05-01T03:23:02.061Z,1.47
2023-05-01T03:25:29.218Z,0.70
2023-05-01T03:27:56.358Z,1.00
2023-05-01T03:30:23.599Z,0.93
2023-05-01T03:32:52.043Z,3.30
2023-05-01T03:35:19.410Z,2.43
2023-05-01T03:37:46.655Z,1.70
2023-05-01T03:40:14.138Z,1.47
2023-05-01T03:42:41.306Z,4.43
2023-05-01T03:45:09.515Z,5.30
2023-05-01T03:47:36.880Z,3.60
2023-05-01T03:50:05.068Z,3.50
2023-05-01T03:52:32.173Z,3.53
2023-05-01T03:54:59.210Z,2.30
2023-05-01T03:57:27.625Z,1.13
2023-05-01T03:59:55.118Z,2.70
2023-05-01T04:02:22.724Z,3.23
2023-05-01T04:04:50.080Z,1.93
2023-05-01T04:07:17.272Z,0.60
2023-05-01T04:09:44.367Z,1.77
2023-05-01T04:12:11.599Z,2.07
2023-05-01T04:14:39.915Z,4.70
2023-05-01T04:17:07.052Z,1.47
2023-05-01T04:19:34.912Z,1.47
2023-05-01T04:22:02.448Z,1.13
2023-05-01T04:24:29.501Z,2.47
2023-05-01T04:26:56.593Z,4.07
2023-05-01T04:29:23.936Z,2.50
2023-05-01T04:31:51.050Z,1.03
2023-05-01T04:34:18.157Z,3.50
2023-05-01T04:36:45.234Z,2.60
2023-05-01T04:39:12.386Z,1.37
2023-05-01T04:41:39.572Z,2.43
2023-05-01T04:44:06.673Z,2.90
2023-05-01T04:46:33.813Z,7.60
2023-05-01T04:49:01.021Z,2.57
2023-05-01T04:51:29.092Z,2.90
2023-05-01T04:53:56.168Z,3.13
2023-05-01T04:56:23.583Z,0.93
2023-05-01T04:58:50.578Z,2.70
2023-05-01T05:01:17.833Z,3.13
2023-05-01T05:03:47.184Z,4.57
2023-05-01T05:06:16.101Z,2.00
2023-05-01T05:08:43.472Z,2.37
2023-05-01T05:11:11.073Z,2.23
2023-05-01T05:13:38.134Z,5.30
2023-05-01T05:16:06.256Z,1.40
2023-05-01T05:18:33.466Z,1.73
2023-05-01T05:21:05.408Z,1.77
2023-05-01T05:23:33.023Z,2.67
2023-05-01T05:26:01.881Z,4.33
2023-05-01T05:28:29.699Z,1.80
2023-05-01T05:30:58.080Z,2.87
2023-05-01T05:33:25.429Z,2.43
2023-05-01T05:35:55.647Z,1.70
2023-05-01T05:38:22.798Z,1.60
2023-05-01T05:40:49.887Z,5.00
2023-05-01T05:43:16.979Z,2.27
2023-05-01T05:45:44.016Z,2.60
2023-05-01T05:48:14.128Z,2.43
2023-05-01T05:50:41.362Z,2.30
2023-05-01T05:53:09.994Z,1.87
2023-05-01T05:55:37.218Z,3.33
2023-05-01T05:58:04.465Z,2.80
2023-05-01T06:00:32.101Z,4.77
2023-05-01T06:02:59.306Z,2.33
2023-05-01T06:05:26.880Z,4.97
2023-05-01T06:07:55.000Z,3.03
2023-05-01T06:10:22.290Z,2.40
2023-05-01T06:13:04.575Z,1.43
2023-05-01T06:15:40.787Z,1.70
2023-05-01T06:18:08.139Z,1.70
2023-05-01T06:20:35.570Z,3.37
2023-05-01T06:23:03.510Z,3.50
2023-05-01T06:25:31.167Z,4.10
2023-05-01T06:27:58.471Z,4.30
2023-05-01T06:30:25.701Z,3.40
2023-05-01T06:32:52.984Z,2.20
2023-05-01T06:35:21.079Z,3.47
2023-05-01T06:37:48.318Z,2.10
2023-05-01T06:40:15.585Z,2.97
2023-05-01T06:42:43.192Z,2.47
2023-05-01T06:45:10.478Z,4.07
2023-05-01T06:47:37.691Z,4.07
2023-05-01T06:50:05.894Z,2.73
2023-05-01T06:52:33.488Z,2.03
2023-05-01T06:55:04.217Z,4.97
2023-05-01T06:57:31.366Z,2.03
2023-05-01T06:59:58.880Z,2.73
2023-05-01T07:02:26.774Z,2.17
2023-05-01T07:04:54.256Z,2.77
2023-05-01T07:07:21.426Z,1.93
2023-05-01T07:09:48.427Z,2.63
2023-05-01T07:12:15.622Z,3.17
2023-05-01T07:14:42.984Z,2.43
2023-05-01T07:17:10.365Z,5.27
2023-05-01T07:19:38.025Z,2.13
2023-05-01T07:22:05.262Z,2.30
2023-05-01T07:24:32.339Z,2.07
2023-05-01T07:27:00.210Z,2.37
2023-05-01T07:29:27.610Z,3.83
2023-05-01T07:31:54.704Z,2.43
2023-05-01T07:34:22.012Z,3.07
2023-05-01T07:36:49.092Z,2.53
2023-05-01T07:39:17.895Z,2.50
2023-05-01T07:41:45.069Z,1.80
2023-05-01T07:44:12.348Z,2.43
2023-05-01T07:46:39.589Z,3.27
2023-05-01T07:49:06.790Z,2.00
2023-05-01T07:51:34.382Z,2.13
2023-05-01T07:54:04.675Z,2.77
2023-05-01T07:56:32.216Z,6.50
2023-05-01T07:58:59.344Z,2.30
2023-05-01T08:01:26.537Z,2.03
2023-05-01T08:03:53.912Z,3.10
2023-05-01T08:06:21.210Z,2.20
2023-05-01T08:08:48.490Z,1.90
2023-05-01T08:11:16.792Z,2.30
2023-05-01T08:13:44.030Z,2.80
2023-05-01T08:16:11.452Z,2.17
2023-05-01T08:18:38.828Z,2.17
2023-05-01T08:21:08.079Z,2.27
2023-05-01T08:23:35.200Z,2.87
2023-05-01T08:26:02.643Z,1.30
2023-05-01T08:28:30.410Z,1.97
2023-05-01T08:30:58.926Z,1.50
2023-05-01T08:33:26.204Z,1.50
2023-05-01T08:35:53.660Z,3.20
2023-05-01T08:38:20.857Z,5.73
2023-05-01T08:40:58.993Z,1.90
2023-05-01T08:43:28.138Z,1.50
2023-05-01T08:45:59.141Z,1.90
2023-05-01T08:48:28.354Z,1.93
2023-05-01T08:51:06.452Z,1.47
2023-05-01T08:53:43.147Z,2.33
2023-05-01T08:56:13.813Z,1.63
2023-05-01T08:58:45.466Z,4.10
2023-05-01T09:01:16.334Z,1.70
2023-05-01T09:03:46.742Z,1.70
2023-05-01T09:06:16.801Z,0.93
2023-05-01T09:08:44.086Z,0.97
2023-05-01T09:11:12.443Z,1.90
2023-05-01T09:13:39.924Z,1.73
2023-05-01T09:16:11.019Z,1.27
2023-05-01T09:18:41.136Z,1.53
2023-05-01T09:21:08.348Z,0.90
2023-05-01T09:23:37.765Z,1.50
2023-05-01T09:26:08.304Z,1.33
2023-05-01T09:28:49.454Z,2.13
2023-05-01T09:31:29.111Z,1.53
2023-05-01T09:34:04.706Z,1.33
2023-05-01T09:36:35.622Z,1.23
2023-05-01T09:39:04.002Z,1.00
2023-05-01T09:41:34.002Z,1.17
2023-05-01T09:44:01.791Z,0.90
2023-05-01T09:46:29.399Z,1.40
2023-05-01T09:49:05.391Z,1.00
2023-05-01T09:51:35.073Z,1.43
2023-05-01T09:54:05.270Z,1.27
2023-05-01T09:56:49.619Z,2.57
2023-05-01T09:59:20.389Z,1.40
2023-05-01T10:01:50.440Z,1.77
2023-05-01T10:04:29.600Z,1.10
2023-05-01T10:06:57.170Z,0.87
2023-05-01T10:09:29.559Z,2.10
2023-05-01T10:11:57.922Z,1.33
2023-05-01T10:14:27.093Z,1.63
2023-05-01T10:16:54.729Z,1.43
2023-05-01T10:19:22.248Z,1.77
2023-05-01T10:21:49.711Z,1.50
2023-05-01T10:24:17.473Z,1.27
2023-05-01T10:26:50.016Z,2.80
2023-05-01T10:29:20.840Z,1.47
2023-05-01T10:31:48.106Z,2.63
2023-05-01T10:34:21.732Z,2.93
2023-05-01T10:37:01.113Z,1.83
2023-05-01T10:39:34.067Z,2.50
2023-05-01T10:42:14.157Z,1.53
2023-05-01T10:44:48.070Z,1.50
2023-05-01T10:47:27.905Z,3.23
2023-05-01T10:50:12.585Z,1.30
2023-05-01T10:53:14.761Z,1.93
2023-05-01T10:55:49.067Z,1.23
2023-05-01T10:58:41.019Z,1.30
2023-05-01T11:01:31.396Z,1.20
2023-05-01T11:04:18.824Z,1.80
2023-05-01T11:07:11.327Z,2.50
2023-05-01T11:09:42.824Z,2.00
2023-05-01T11:12:15.920Z,2.03
2023-05-01T11:15:01.538Z,2.73
2023-05-01T11:17:43.694Z,2.03
2023-05-01T11:20:24.772Z,1.40
2023-05-01T11:22:54.601Z,2.03
2023-05-01T11:25:24.181Z,1.20
2023-05-01T11:28:06.752Z,1.23
2023-05-01T11:30:38.289Z,1.97
2023-05-01T11:33:10.588Z,2.47
2023-05-01T11:35:38.958Z,2.20
2023-05-01T11:38:18.857Z,1.37
2023-05-01T11:40:55.543Z,3.27
2023-05-01T11:43:23.549Z,1.80
2023-05-01T11:46:02.390Z,2.33
2023-05-01T11:48:30.886Z,1.57
2023-05-01T11:50:58.216Z,2.17
2023-05-01T11:53:25.754Z,1.40
2023-05-01T11:55:52.933Z,1.20
2023-05-01T11:58:33.040Z,1.33
2023-05-01T12:01:00.245Z,0.97
2023-05-01T12:03:27.598Z,1.40
2023-05-01T12:05:54.669Z,1.43
2023-05-01T12:08:23.643Z,1.00
2023-05-01T12:10:56.426Z,2.13
2023-05-01T12:13:24.866Z,2.10
2023-05-01T12:15:54.905Z,1.70
2023-05-01T12:18:23.050Z,1.47
2023-05-01T12:20:56.577Z,1.20
2023-05-01T12:23:40.028Z,1.67
2023-05-01T12:26:24.101Z,9.43
2023-05-01T12:29:05.696Z,2.10
2023-05-01T12:31:33.760Z,2.47
2023-05-01T12:34:06.221Z,1.27
2023-05-01T12:36:36.330Z,1.77
2023-05-01T12:39:17.477Z,1.57
2023-05-01T12:41:49.543Z,1.87
2023-05-01T12:44:26.129Z,1.57
2023-05-01T12:47:13.232Z,2.43
2023-05-01T12:49:43.541Z,1.80
2023-05-01T12:52:11.174Z,1.00
2023-05-01T12:54:44.093Z,1.17
2023-05-01T12:57:18.248Z,1.47
2023-05-01T12:59:54.456Z,2.00
2023-05-01T13:02:32.207Z,1.77
2023-05-01T13:05:11.668Z,1.70
2023-05-01T13:07:40.357Z,1.87
2023-05-01T13:10:08.142Z,1.90
2023-05-01T13:12:45.097Z,3.07
2023-05-01T13:15:22.248Z,1.13
2023-05-01T13:17:49.766Z,1.30
2023-05-01T13:20:29.485Z,1.27
2023-05-01T13:22:56.696Z,1.17
2023-05-01T13:25:24.981Z,1.80
2023-05-01T13:27:54.009Z,3.77
2023-05-01T13:30:32.225Z,2.27
2023-05-01T13:32:59.473Z,2.07
2023-05-01T13:35:27.507Z,3.17
2023-05-01T13:37:55.042Z,1.63
2023-05-01T13:40:26.212Z,1.47
2023-05-01T13:42:54.174Z,1.77
2023-05-01T13:45:21.662Z,1.67
2023-05-01T13:47:52.076Z,1.10
2023-05-01T13:50:19.765Z,1.50
2023-05-01T13:52:47.792Z,2.07
2023-05-01T13:55:17.631Z,1.90
2023-05-01T13:57:44.845Z,1.63
2023-05-01T14:00:19.938Z,1.63
2023-05-01T14:02:49.268Z,1.27
2023-05-01T14:05:21.182Z,1.40
2023-05-01T14:07:57.013Z,3.03
2023-05-01T14:10:28.244Z,2.27
2023-05-01T14:12:59.127Z,1.60
2023-05-01T14:15:27.306Z,2.10
2023-05-01T14:17:56.895Z,1.73
2023-05-01T14:20:26.060Z,1.00
2023-05-01T14:22:53.655Z,0.90
2023-05-01T14:25:31.333Z,1.50
2023-05-01T14:28:01.213Z,1.43
2023-05-01T14:30:34.582Z,3.27
2023-05-01T14:33:08.243Z,1.20
2023-05-01T14:35:39.005Z,1.10
2023-05-01T14:38:13.282Z,1.47
2023-05-01T14:40:44.626Z,1.53
2023-05-01T14:43:17.692Z,3.40
2023-05-01T14:45:46.673Z,1.30
2023-05-01T14:48:25.958Z,1.23
2023-05-01T14:50:57.998Z,1.40
2023-05-01T14:53:27.337Z,1.00
2023-05-01T14:55:57.930Z,1.33
2023-05-01T14:58:25.369Z,4.97
2023-05-01T15:00:55.372Z,1.03
2023-05-01T15:03:27.476Z,1.43
2023-05-01T15:06:04.268Z,2.63
2023-05-01T15:08:32.564Z,1.70
2023-05-01T15:11:00.008Z,1.63
2023-05-01T15:13:27.827Z,1.53
2023-05-01T15:15:55.722Z,1.47
2023-05-01T15:18:23.696Z,1.40
2023-05-01T15:20:51.347Z,1.43
2023-05-01T15:23:18.479Z,0.77
2023-05-01T15:25:49.473Z,1.93
2023-05-01T15:28:16.927Z,1.10
2023-05-01T15:30:47.712Z,8.03
2023-05-01T15:33:18.025Z,0.90
2023-05-01T15:35:47.373Z,2.70
2023-05-01T15:38:14.456Z,1.20
2023-05-01T15:40:43.954Z,1.33
2023-05-01T15:43:11.094Z,1.27
2023-05-01T15:45:43.761Z,0.90
2023-05-01T15:48:12.236Z,1.00
2023-05-01T15:50:42.101Z,1.13
2023-05-01T15:53:09.542Z,0.97
2023-05-01T15:55:36.956Z,0.80
2023-05-01T15:58:04.246Z,1.33
2023-05-01T16:00:32.873Z,0.83
2023-05-01T16:03:03.160Z,1.07
2023-05-01T16:05:30.475Z,1.20
2023-05-01T16:08:01.031Z,1.43
2023-05-01T16:10:28.349Z,2.43
2023-05-01T16:12:55.564Z,1.00
2023-05-01T16:15:23.104Z,0.90
2023-05-01T16:17:55.143Z,1.20
2023-05-01T16:20:27.623Z,0.80
2023-05-01T16:22:54.765Z,1.37
2023-05-01T16:25:22.022Z,1.07
2023-05-01T16:27:49.117Z,0.90
2023-05-01T16:30:16.983Z,1.20
2023-05-01T16:32:45.177Z,1.27
2023-05-01T16:35:20.892Z,1.20
2023-05-01T16:37:47.973Z,0.87
2023-05-01T16:40:18.858Z,3.00
2023-05-01T16:43:02.883Z,1.03
2023-05-01T16:45:32.630Z,0.93
2023-05-01T16:48:00.048Z,1.13
2023-05-01T16:50:27.884Z,0.70
2023-05-01T16:52:56.099Z,0.80
2023-05-01T16:55:24.925Z,2.17
2023-05-01T16:57:52.843Z,1.37
2023-05-01T17:00:20.453Z,0.80
2023-05-01T17:02:52.410Z,2.60
2023-05-01T17:05:19.546Z,1.63
2023-05-01T17:07:46.798Z,1.27
2023-05-01T17:10:14.001Z,1.07
2023-05-01T17:12:41.418Z,2.07
2023-05-01T17:15:09.924Z,2.53
2023-05-01T17:17:37.045Z,1.77
2023-05-01T17:20:05.631Z,2.37
2023-05-01T17:22:33.083Z,1.60
2023-05-01T17:25:02.467Z,1.67
2023-05-01T17:27:33.514Z,1.30
2023-05-01T17:30:00.911Z,1.67
2023-05-01T17:32:36.268Z,1.40
2023-05-01T17:35:05.919Z,1.53
2023-05-01T17:37:33.263Z,2.00
2023-05-01T17:40:00.570Z,1.23
2023-05-01T17:42:27.849Z,1.47
2023-05-01T17:44:56.139Z,1.13
2023-05-01T17:47:25.796Z,2.10
2023-05-01T17:49:53.471Z,1.30
2023-05-01T17:52:20.508Z,1.30
2023-05-01T17:54:47.589Z,1.37
2023-05-01T17:57:14.611Z,1.80
2023-05-01T17:59:41.821Z,1.67
2023-05-01T18:02:09.164Z,1.33
2023-05-01T18:04:38.039Z,1.33
2023-05-01T18:07:05.398Z,1.27
2023-05-01T18:09:32.438Z,2.07
2023-05-01T18:12:01.906Z,1.37
2023-05-01T18:14:30.305Z,0.93
2023-05-01T18:16:57.584Z,1.60
2023-05-01T18:19:24.752Z,2.17
2023-05-01T18:21:51.975Z,1.20
2023-05-01T18:24:19.142Z,4.20
2023-05-01T18:26:48.200Z,2.17
2023-05-01T18:29:15.472Z,1.27
2023-05-01T18:31:42.575Z,2.40
2023-05-01T18:34:12.008Z,4.37
2023-05-01T18:36:39.146Z,3.00
2023-05-01T18:39:06.228Z,2.80
2023-05-01T18:41:33.468Z,2.07
2023-05-01T18:44:02.589Z,1.00
2023-05-01T18:46:30.096Z,1.67
2023-05-01T18:48:57.372Z,1.63
2023-05-01T18:51:24.544Z,1.87
2023-05-01T18:53:51.648Z,1.77
2023-05-01T18:56:19.168Z,2.07
2023-05-01T18:58:48.156Z,2.43
2023-05-01T19:01:15.319Z,3.07
2023-05-01T19:03:42.761Z,1.87
2023-05-01T19:06:13.092Z,1.33
2023-05-01T19:08:40.870Z,4.20
2023-05-01T19:11:08.044Z,1.20
2023-05-01T19:13:35.266Z,3.80
2023-05-01T19:16:02.384Z,1.80
2023-05-01T19:18:29.766Z,2.30
2023-05-01T19:20:56.831Z,10.70
2023-05-01T19:23:23.963Z,13.57
2023-05-01T19:25:51.146Z,35.00
2023-05-01T19:28:18.434Z,42.73
2023-05-01T19:30:45.617Z,19.27
2023-05-01T19:33:12.817Z,10.07
2023-05-01T19:35:39.927Z,6.87
2023-05-01T19:38:07.000Z,5.83
2023-05-01T19:40:34.137Z,11.93
2023-05-01T19:43:01.349Z,5.50
2023-05-01T19:45:28.678Z,7.03
2023-05-01T19:47:55.904Z,5.23
2023-05-01T19:50:26.403Z,6.30
2023-05-01T19:52:53.510Z,6.63
2023-05-01T19:55:20.711Z,3.93
2023-05-01T19:57:48.065Z,4.07
2023-05-01T20:00:15.418Z,3.63
2023-05-01T20:02:42.566Z,4.90
2023-05-01T20:05:11.027Z,2.97
2023-05-01T20:07:38.065Z,2.53
2023-05-01T20:10:06.991Z,3.37
2023-05-01T20:12:34.131Z,2.60
2023-05-01T20:15:01.661Z,4.13
2023-05-01T20:17:29.047Z,2.90
2023-05-01T20:19:56.413Z,1.83
2023-05-01T20:22:25.933Z,2.70
2023-05-01T20:24:52.972Z,4.27
2023-05-01T20:27:20.147Z,2.47
2023-05-01T20:29:47.406Z,5.77
2023-05-01T20:32:14.535Z,4.03
2023-05-01T20:34:41.762Z,3.03
2023-05-01T20:37:09.072Z,2.87
2023-05-01T20:39:36.258Z,2.60
2023-05-01T20:42:05.219Z,3.37
2023-05-01T20:44:32.713Z,3.07
2023-05-01T20:46:59.943Z,3.70
2023-05-01T20:49:28.487Z,6.37
2023-05-01T20:51:57.098Z,3.97
2023-05-01T20:54:24.252Z,8.10
2023-05-01T20:56:51.421Z,9.37
2023-05-01T20:59:18.608Z,3.60
2023-05-01T21:01:45.869Z,5.30
2023-05-01T21:04:13.758Z,3.50
2023-05-01T21:06:41.143Z,4.57
2023-05-01T21:09:11.161Z,4.97
2023-05-01T21:11:40.821Z,4.23
2023-05-01T21:14:08.861Z,6.80
2023-05-01T21:16:38.990Z,3.03
2023-05-01T21:19:07.031Z,2.90
2023-05-01T21:21:40.132Z,3.63
2023-05-01T21:24:09.320Z,11.83
2023-05-01T21:26:36.608Z,4.33
2023-05-01T21:29:03.775Z,4.67
2023-05-01T21:31:36.811Z,3.63
2023-05-01T21:34:07.365Z,4.37
2023-05-01T21:36:42.709Z,3.30
2023-05-01T21:39:10.206Z,2.97
2023-05-01T21:41:38.938Z,4.00
2023-05-01T21:44:07.398Z,2.40
2023-05-01T21:46:37.237Z,1.60
2023-05-01T21:49:04.953Z,2.53
2023-05-01T21:51:33.572Z,2.40
2023-05-01T21:54:01.991Z,2.27
2023-05-01T21:56:29.169Z,2.00
2023-05-01T21:59:02.434Z,2.70
2023-05-01T22:01:29.838Z,2.40
2023-05-01T22:03:57.201Z,2.97
2023-05-01T22:06:24.639Z,2.63
2023-05-01T22:08:52.453Z,3.37
2023-05-01T22:11:20.277Z,5.37
2023-05-01T22:13:47.336Z,3.90
2023-05-01T22:16:14.768Z,2.87
2023-05-01T22:18:41.865Z,2.17
2023-05-01T22:21:08.927Z,2.67
2023-05-01T22:23:35.934Z,2.43
2023-05-01T22:26:03.025Z,3.87
2023-05-01T22:28:30.092Z,1.80
2023-05-01T22:31:03.355Z,2.57
2023-05-01T22:33:30.476Z,2.73
2023-05-01T22:35:57.558Z,1.90
2023-05-01T22:38:24.676Z,3.03
2023-05-01T22:40:51.861Z,2.10
2023-05-01T22:43:19.218Z,1.80
2023-05-01T22:45:46.497Z,3.93
2023-05-01T22:48:13.588Z,3.17
2023-05-01T22:50:42.804Z,2.10
2023-05-01T22:53:10.170Z,2.43
2023-05-01T22:55:38.146Z,2.67
2023-05-01T22:58:05.217Z,6.00
2023-05-01T23:00:32.478Z,2.03
2023-05-01T23:03:00.507Z,5.20
2023-05-01T23:05:27.710Z,2.57
2023-05-01T23:07:54.925Z,3.97
2023-05-01T23:10:26.914Z,1.93
2023-05-01T23:12:54.146Z,1.47
2023-05-01T23:15:26.108Z,2.17
2023-05-01T23:17:53.276Z,3.53
2023-05-01T23:20:24.600Z,2.13
2023-05-01T23:22:52.147Z,2.57
2023-05-01T23:25:26.230Z,1.90
2023-05-01T23:27:55.565Z,3.43
2023-05-01T23:30:23.180Z,1.90
2023-05-01T23:32:50.332Z,1.77
2023-05-01T23:35:25.081Z,3.73
2023-05-01T23:37:53.849Z,2.97
2023-05-01T23:40:21.374Z,2.23
2023-05-01T23:42:49.812Z,2.07
2023-05-01T23:45:17.177Z,2.53
2023-05-01T23:47:44.542Z,2.67
2023-05-01T23:50:11.910Z,1.87
2023-05-01T23:52:39.233Z,1.50
2023-05-01T23:55:06.678Z,3.20
2023-05-01T23:57:33.760Z,2.00
